Time;durP1;ratioP1;P1;durP2;ratioP2;P2;SDS_P1;SDS_P2;PMS_P1;PMS_P2;Temp;Humidity;BMP_temperature;BMP_pressure;BME280_temperature;BME280_humidity;BME280_pressure;Samples;Min_cycle;Max_cycle;Signal;HPM_P1;HPM_P2
2021/07/28 00:00:14;;;;;;;7.30;5.60;;;22.00;99.90;;;;;;5042000;28;20926;-82
2021/07/28 00:02:42;;;;;;;5.63;5.13;;;22.00;99.90;;;;;;5040995;28;21092;-82
2021/07/28 00:05:10;;;;;;;6.10;5.50;;;21.70;99.90;;;;;;5041961;28;20954;-82
2021/07/28 00:07:36;;;;;;;5.63;5.13;;;22.00;99.90;;;;;;5041426;28;20443;-82
2021/07/28 00:10:04;;;;;;;6.43;5.83;;;21.90;99.90;;;;;;5042362;28;20471;-81
2021/07/28 00:12:31;;;;;;;6.80;6.03;;;21.90;99.90;;;;;;5042438;28;20497;-82
2021/07/28 00:14:57;;;;;;;6.20;5.60;;;21.90;99.90;;;;;;5043969;28;20501;-81
2021/07/28 00:17:26;;;;;;;6.10;5.47;;;21.70;99.90;;;;;;5043330;28;20517;-82
2021/07/28 00:19:57;;;;;;;6.53;5.20;;;21.80;99.90;;;;;;5045089;28;20470;-82
2021/07/28 00:25:09;;;;;;;6.50;5.90;;;21.80;99.90;;;;;;5044995;28;20482;-82
2021/07/28 00:27:36;;;;;;;6.17;5.57;;;21.80;99.90;;;;;;5046513;28;20443;-82
2021/07/28 00:30:03;;;;;;;6.13;5.53;;;22.10;99.90;;;;;;5050769;28;20471;-81
2021/07/28 00:32:30;;;;;;;6.77;5.23;;;21.70;99.90;;;;;;5049919;28;20447;-82
2021/07/28 00:34:58;;;;;;;6.23;5.33;;;21.70;99.90;;;;;;5051885;28;20446;-81
2021/07/28 00:37:24;;;;;;;6.57;5.27;;;21.60;99.90;;;;;;5053127;28;20435;-83
2021/07/28 00:39:51;;;;;;;8.43;5.97;;;21.60;99.90;;;;;;5053824;28;20481;-82
2021/07/28 00:42:17;;;;;;;6.23;5.60;;;21.50;99.90;;;;;;5053120;28;20491;-82
2021/07/28 00:44:44;;;;;;;6.37;5.77;;;21.50;99.90;;;;;;5046425;28;20774;-82
2021/07/28 00:47:11;;;;;;;6.47;5.23;;;21.50;99.90;;;;;;5044771;28;20972;-82
2021/07/28 00:49:38;;;;;;;6.00;5.40;;;21.60;99.90;;;;;;5049165;28;20539;-81
2021/07/28 00:52:08;;;;;;;8.43;6.57;;;21.50;99.90;;;;;;5055794;28;20439;-82
2021/07/28 00:54:36;;;;;;;6.80;6.20;;;21.50;99.90;;;;;;5044821;28;20447;-82
2021/07/28 00:57:03;;;;;;;6.70;6.00;;;21.50;99.90;;;;;;5041940;28;20473;-81
2021/07/28 00:59:30;;;;;;;5.87;5.37;;;21.40;99.90;;;;;;5041283;28;20467;-82
2021/07/28 01:01:57;;;;;;;8.67;6.47;;;21.40;99.90;;;;;;5040845;28;20522;-82
2021/07/28 01:04:25;;;;;;;6.27;5.60;;;21.30;99.90;;;;;;5042108;28;20446;-82
2021/07/28 01:06:58;;;;;;;6.03;5.43;;;21.30;99.90;;;;;;5041816;28;20473;-82
2021/07/28 01:09:28;;;;;;;6.20;5.60;;;21.20;99.90;;;;;;5041364;28;20499;-82
2021/07/28 01:11:57;;;;;;;6.60;5.53;;;21.20;99.90;;;;;;5050140;28;20427;-82
2021/07/28 01:14:23;;;;;;;5.67;5.13;;;21.70;99.90;;;;;;5053440;28;20489;-81
2021/07/28 01:16:52;;;;;;;7.10;6.43;;;21.20;99.90;;;;;;5047068;28;20501;-82
2021/07/28 01:19:20;;;;;;;6.30;5.70;;;21.10;99.90;;;;;;5038683;28;20470;-82
2021/07/28 01:21:49;;;;;;;7.20;6.20;;;21.20;99.90;;;;;;5042248;28;20459;-82
2021/07/28 01:24:17;;;;;;;6.90;6.30;;;21.10;99.90;;;;;;5036766;28;20479;-81
2021/07/28 01:26:44;;;;;;;6.40;5.90;;;21.10;99.90;;;;;;5036606;28;20479;-82
2021/07/28 01:29:11;;;;;;;6.43;5.73;;;20.90;99.90;;;;;;5036301;28;20997;-82
2021/07/28 01:31:40;;;;;;;7.83;6.20;;;21.00;99.90;;;;;;5037202;28;20447;-82
2021/07/28 01:34:07;;;;;;;6.83;6.10;;;21.00;99.90;;;;;;5036219;28;20442;-82
2021/07/28 01:36:35;;;;;;;6.17;5.63;;;21.00;99.90;;;;;;5037380;28;20478;-82
2021/07/28 01:39:03;;;;;;;6.50;5.47;;;20.90;99.90;;;;;;5043428;28;20600;-82
2021/07/28 01:41:31;;;;;;;6.20;5.43;;;20.90;99.90;;;;;;5049895;28;20443;-81
2021/07/28 01:43:58;;;;;;;7.43;6.17;;;20.90;99.90;;;;;;5045992;28;20450;-81
2021/07/28 01:46:24;;;;;;;6.43;5.93;;;20.80;99.90;;;;;;5046286;28;20451;-81
2021/07/28 01:48:51;;;;;;;6.30;5.70;;;20.70;99.90;;;;;;5039103;28;20497;-81
2021/07/28 01:51:18;;;;;;;6.10;5.50;;;20.80;99.90;;;;;;5039829;28;20810;-81
2021/07/28 01:53:44;;;;;;;7.03;6.30;;;20.70;99.90;;;;;;5038206;28;20447;-81
2021/07/28 01:56:11;;;;;;;6.80;5.93;;;20.80;99.90;;;;;;5038297;28;20473;-81
2021/07/28 01:58:42;;;;;;;7.10;6.00;;;20.80;99.90;;;;;;5038894;28;20455;-81
2021/07/28 02:01:08;;;;;;;7.43;6.83;;;20.80;99.90;;;;;;5044260;28;20447;-81
2021/07/28 02:03:35;;;;;;;6.10;5.50;;;20.70;99.90;;;;;;5049193;28;20487;-81
2021/07/28 02:06:01;;;;;;;6.40;5.80;;;20.70;99.90;;;;;;5042191;28;20841;-82
2021/07/28 02:08:28;;;;;;;7.70;5.80;;;20.60;99.90;;;;;;5037453;28;20455;-82
2021/07/28 02:10:55;;;;;;;7.17;6.47;;;20.80;99.90;;;;;;5037721;28;20479;-82
2021/07/28 02:13:23;;;;;;;6.40;5.23;;;20.70;99.90;;;;;;5039173;28;20439;-81
2021/07/28 02:15:51;;;;;;;7.10;6.40;;;20.70;99.90;;;;;;5037805;28;20446;-81
2021/07/28 02:18:18;;;;;;;6.80;6.20;;;20.70;99.90;;;;;;5052875;28;20465;-81
2021/07/28 02:20:44;;;;;;;9.13;6.63;;;20.80;99.90;;;;;;5045831;28;20535;-82
2021/07/28 02:23:11;;;;;;;6.63;6.07;;;20.70;99.90;;;;;;5039077;28;20524;-81
2021/07/28 02:25:37;;;;;;;5.93;5.33;;;20.60;99.90;;;;;;5052391;28;20439;-79
2021/07/28 02:28:04;;;;;;;6.30;5.80;;;20.70;99.90;;;;;;5049225;28;20451;-81
2021/07/28 02:30:31;;;;;;;5.87;5.37;;;20.70;99.90;;;;;;5041425;28;20467;-82
2021/07/28 02:32:59;;;;;;;7.50;6.80;;;20.70;99.90;;;;;;5039841;28;20447;-81
2021/07/28 02:35:25;;;;;;;7.07;6.37;;;20.70;99.90;;;;;;5043682;28;20538;-81
2021/07/28 02:37:52;;;;;;;6.93;6.20;;;20.70;99.90;;;;;;5051147;28;20436;-81
2021/07/28 02:40:20;;;;;;;8.87;7.10;;;20.70;99.90;;;;;;5050388;28;20507;-81
2021/07/28 02:42:47;;;;;;;6.00;5.40;;;20.60;99.90;;;;;;5044351;28;20482;-81
2021/07/28 02:45:13;;;;;;;11.00;6.90;;;20.60;99.90;;;;;;5037620;28;20483;-81
2021/07/28 02:47:41;;;;;;;5.97;5.40;;;20.50;99.90;;;;;;5038275;28;20451;-81
2021/07/28 02:50:10;;;;;;;6.93;6.00;;;20.80;99.90;;;;;;5037622;28;20814;-81
2021/07/28 02:52:36;;;;;;;21.30;7.17;;;20.70;99.90;;;;;;5037660;28;20446;-81
2021/07/28 02:55:05;;;;;;;6.63;5.73;;;20.60;99.90;;;;;;5037710;28;20483;-81
2021/07/28 02:57:32;;;;;;;7.60;6.20;;;20.60;99.90;;;;;;5038530;28;20454;-81
2021/07/28 02:59:59;;;;;;;6.40;5.80;;;20.70;99.90;;;;;;5037807;28;20490;-81
2021/07/28 03:02:26;;;;;;;6.80;6.10;;;20.70;99.90;;;;;;5037710;28;20478;-81
2021/07/28 03:04:52;;;;;;;6.17;5.67;;;20.50;99.90;;;;;;5036962;28;20452;-81
2021/07/28 03:07:20;;;;;;;6.13;5.63;;;20.60;99.90;;;;;;5042593;28;20821;-80
2021/07/28 03:09:47;;;;;;;5.93;5.20;;;20.50;99.90;;;;;;5056241;28;20470;-80
2021/07/28 03:12:13;;;;;;;8.40;6.97;;;20.60;99.90;;;;;;5056178;28;20469;-81
2021/07/28 03:14:40;;;;;;;6.67;6.07;;;20.40;99.90;;;;;;5055814;28;20447;-80
2021/07/28 03:17:06;;;;;;;6.37;5.87;;;20.50;99.90;;;;;;5059709;28;20434;-79
2021/07/28 03:19:33;;;;;;;6.80;6.17;;;20.50;99.90;;;;;;5059405;28;20481;-80
2021/07/28 03:22:00;;;;;;;8.90;6.27;;;20.60;99.90;;;;;;5056939;28;20443;-80
2021/07/28 03:24:28;;;;;;;8.17;6.27;;;20.60;99.90;;;;;;5057029;28;20443;-80
2021/07/28 03:26:54;;;;;;;6.30;5.70;;;20.60;99.90;;;;;;5057038;28;20504;-80
2021/07/28 03:29:22;;;;;;;5.50;5.00;;;20.50;99.90;;;;;;5056580;28;20458;-81
2021/07/28 03:31:49;;;;;;;6.83;6.20;;;20.50;99.90;;;;;;5059387;28;20446;-79
2021/07/28 03:34:16;;;;;;;9.40;6.57;;;20.40;99.90;;;;;;5059035;28;20443;-80
2021/07/28 03:36:42;;;;;;;7.00;6.23;;;20.60;99.90;;;;;;5058168;28;20446;-80
2021/07/28 03:39:09;;;;;;;6.60;6.00;;;20.50;99.90;;;;;;5056367;28;20467;-80
2021/07/28 03:41:37;;;;;;;9.30;7.40;;;20.50;99.90;;;;;;5046561;28;20439;-81
2021/07/28 03:44:03;;;;;;;7.13;6.13;;;20.40;99.90;;;;;;5041850;28;20993;-81
2021/07/28 03:46:30;;;;;;;8.40;7.70;;;20.40;99.90;;;;;;5041370;28;20501;-82
2021/07/28 03:48:57;;;;;;;7.80;6.80;;;20.40;99.90;;;;;;5041366;28;20871;-81
2021/07/28 03:51:23;;;;;;;8.20;7.40;;;20.40;99.90;;;;;;5040020;28;20454;-80
2021/07/28 03:53:53;;;;;;;7.83;6.50;;;20.30;99.90;;;;;;5040639;28;20443;-82
2021/07/28 03:56:22;;;;;;;8.20;7.40;;;20.20;99.90;;;;;;5040255;28;20443;-80
2021/07/28 03:58:52;;;;;;;9.27;8.37;;;20.30;99.90;;;;;;5040138;28;20805;-80
2021/07/28 04:01:19;;;;;;;10.20;9.17;;;20.20;99.90;;;;;;5040255;28;20447;-82
2021/07/28 04:03:45;;;;;;;11.00;8.20;;;20.20;99.90;;;;;;5039744;28;20566;-83
2021/07/28 04:06:12;;;;;;;8.90;8.03;;;20.20;99.90;;;;;;5040463;28;20447;-82
2021/07/28 04:08:38;;;;;;;10.03;7.93;;;20.20;99.90;;;;;;5039510;28;20451;-83
2021/07/28 04:11:05;;;;;;;9.77;8.77;;;20.40;99.90;;;;;;5055633;28;20447;-82
2021/07/28 04:13:31;;;;;;;9.47;8.60;;;19.80;99.90;;;;;;5044012;28;20434;-83
2021/07/28 04:15:59;;;;;;;11.43;8.50;;;20.10;99.90;;;;;;5042097;28;20446;-83
2021/07/28 04:18:26;;;;;;;8.83;7.93;;;20.10;99.90;;;;;;5042711;28;20454;-82
2021/07/28 04:20:52;;;;;;;15.27;9.90;;;20.00;99.90;;;;;;5051144;28;20466;-81
2021/07/28 04:23:19;;;;;;;9.30;8.00;;;20.10;99.90;;;;;;5041136;28;20900;-81
2021/07/28 04:25:46;;;;;;;8.67;7.73;;;19.80;99.90;;;;;;5039794;28;20485;-81
2021/07/28 04:28:12;;;;;;;7.80;7.00;;;20.10;99.90;;;;;;5040106;28;20458;-81
2021/07/28 04:30:39;;;;;;;15.33;8.20;;;20.00;99.90;;;;;;5043766;28;20502;-81
2021/07/28 04:33:06;;;;;;;7.90;7.30;;;19.90;99.90;;;;;;5040086;28;20482;-84
2021/07/28 04:35:34;;;;;;;10.30;8.30;;;19.80;99.90;;;;;;5039910;28;21004;-81
2021/07/28 04:38:01;;;;;;;9.30;8.27;;;19.80;99.90;;;;;;5039706;28;20886;-81
2021/07/28 04:40:28;;;;;;;9.90;7.93;;;19.80;99.90;;;;;;5038938;28;20475;-81
2021/07/28 04:42:54;;;;;;;7.97;7.17;;;19.90;99.90;;;;;;5039038;28;20486;-82
2021/07/28 04:45:21;;;;;;;8.40;7.60;;;19.90;99.90;;;;;;5039500;28;20479;-82
2021/07/28 04:47:47;;;;;;;9.73;7.77;;;19.80;99.90;;;;;;5040481;28;20487;-81
2021/07/28 04:50:16;;;;;;;9.40;8.47;;;19.80;99.90;;;;;;5037106;28;20503;-81
2021/07/28 04:52:42;;;;;;;8.50;7.77;;;19.80;99.90;;;;;;5039345;28;20469;-81
2021/07/28 04:55:09;;;;;;;9.37;8.47;;;19.80;99.90;;;;;;5037108;28;20489;-81
2021/07/28 04:57:36;;;;;;;9.83;8.93;;;19.90;99.90;;;;;;5036700;28;20521;-81
2021/07/28 05:00:04;;;;;;;10.03;9.13;;;19.90;99.90;;;;;;5036814;28;20550;-81
2021/07/28 05:02:30;;;;;;;10.67;8.43;;;20.00;99.90;;;;;;5037066;28;20844;-81
2021/07/28 05:04:57;;;;;;;8.50;7.60;;;19.80;99.90;;;;;;5051513;28;20428;-80
2021/07/28 05:07:25;;;;;;;12.57;9.00;;;19.60;99.90;;;;;;5056191;28;20458;-82
2021/07/28 05:09:51;;;;;;;11.03;9.30;;;20.00;99.90;;;;;;5042768;28;20225;-82
2021/07/28 05:12:18;;;;;;;9.17;8.27;;;20.10;99.90;;;;;;5041740;28;20522;-82
2021/07/28 05:14:44;;;;;;;9.47;7.77;;;20.00;99.90;;;;;;5040918;28;20447;-82
2021/07/28 05:17:11;;;;;;;11.93;8.50;;;20.10;99.90;;;;;;5049181;28;20442;-79
2021/07/28 05:19:37;;;;;;;9.13;8.23;;;20.10;99.90;;;;;;5053047;28;20470;-79
2021/07/28 05:22:04;;;;;;;11.83;7.63;;;20.10;99.90;;;;;;5041178;28;20828;-80
2021/07/28 05:24:32;;;;;;;8.67;7.30;;;20.00;99.90;;;;;;5040699;28;20928;-79
2021/07/28 05:26:59;;;;;;;7.67;6.97;;;19.90;99.90;;;;;;5045463;28;20454;-80
2021/07/28 05:29:25;;;;;;;12.00;9.33;;;20.00;99.90;;;;;;5038063;28;20455;-80
2021/07/28 05:31:52;;;;;;;11.43;8.57;;;20.00;99.90;;;;;;5040833;28;20486;-79
2021/07/28 05:34:18;;;;;;;7.30;6.70;;;19.90;99.90;;;;;;5038789;28;20446;-80
2021/07/28 05:36:45;;;;;;;8.60;7.77;;;19.80;99.90;;;;;;5037772;28;20508;-80
2021/07/28 05:39:11;;;;;;;8.80;7.90;;;19.70;99.90;;;;;;5060358;22;20487;-77
2021/07/28 05:41:39;;;;;;;10.00;8.00;;;19.60;99.90;;;;;;5020971;28;20440;-80
2021/07/28 05:44:08;;;;;;;9.93;8.27;;;19.60;99.90;;;;;;5027586;28;20488;-79
2021/07/28 05:46:35;;;;;;;9.63;7.83;;;19.60;99.90;;;;;;5030336;28;20448;-81
2021/07/28 05:49:02;;;;;;;8.93;7.57;;;19.80;99.90;;;;;;5028329;28;20487;-77
2021/07/28 05:51:29;;;;;;;13.27;8.57;;;19.70;99.90;;;;;;5027837;28;20471;-77
2021/07/28 05:53:55;;;;;;;10.73;8.80;;;19.60;99.90;;;;;;5031143;28;20467;-79
2021/07/28 05:56:22;;;;;;;10.33;8.07;;;19.70;99.90;;;;;;5026057;28;20494;-80
2021/07/28 05:58:50;;;;;;;8.75;6.90;;;19.40;99.90;;;;;;5026405;28;20455;-78
2021/07/28 06:01:16;;;;;;;7.50;6.80;;;19.70;99.90;;;;;;5028874;28;20236;-77
2021/07/28 06:03:43;;;;;;;9.20;8.33;;;19.80;99.90;;;;;;5023405;28;20673;-79
2021/07/28 06:06:09;;;;;;;8.17;6.33;;;19.90;99.90;;;;;;5025164;28;20444;-79
2021/07/28 06:08:36;;;;;;;7.33;6.53;;;19.90;99.90;;;;;;5027886;28;20447;-78
2021/07/28 06:11:03;;;;;;;8.93;8.10;;;19.90;99.90;;;;;;5024519;28;20463;-78
2021/07/28 06:13:29;;;;;;;10.00;8.03;;;19.90;99.90;;;;;;5020745;28;20444;-78
2021/07/28 06:15:57;;;;;;;9.30;8.40;;;20.00;99.90;;;;;;5020345;28;20475;-78
2021/07/28 06:18:24;;;;;;;8.07;6.60;;;20.00;99.90;;;;;;5019763;28;20483;-77
2021/07/28 06:20:52;;;;;;;8.67;7.77;;;20.10;99.90;;;;;;5020186;28;20468;-79
2021/07/28 06:23:19;;;;;;;11.27;7.93;;;20.10;99.90;;;;;;5020640;28;20490;-78
2021/07/28 06:25:45;;;;;;;11.20;7.17;;;20.00;99.90;;;;;;5022508;28;20452;-80
2021/07/28 06:28:12;;;;;;;10.97;8.00;;;20.10;99.90;;;;;;5020360;28;20448;-81
2021/07/28 06:30:38;;;;;;;9.70;7.60;;;20.20;99.90;;;;;;5019617;28;20622;-81
2021/07/28 06:33:06;;;;;;;9.70;8.80;;;20.30;99.90;;;;;;5019302;28;20452;-80
2021/07/28 06:35:33;;;;;;;9.50;7.30;;;20.30;99.90;;;;;;5018512;28;20475;-79
2021/07/28 06:37:59;;;;;;;9.57;8.60;;;20.20;99.90;;;;;;5017243;28;20459;-80
2021/07/28 06:40:26;;;;;;;9.40;8.00;;;20.30;99.90;;;;;;5017830;28;20985;-80
2021/07/28 06:42:52;;;;;;;11.53;8.40;;;20.20;99.90;;;;;;5021999;28;20444;-80
2021/07/28 06:45:19;;;;;;;11.00;9.10;;;20.40;99.90;;;;;;5023366;28;20447;-80
2021/07/28 06:47:46;;;;;;;10.97;9.87;;;20.40;99.90;;;;;;5022961;28;20480;-79
2021/07/28 06:50:14;;;;;;;12.67;8.33;;;20.30;99.90;;;;;;5025721;28;20471;-80
2021/07/28 06:52:40;;;;;;;17.70;8.50;;;20.40;99.90;;;;;;5029122;28;20448;-78
2021/07/28 06:55:08;;;;;;;42.47;9.90;;;20.30;99.90;;;;;;5029231;28;20455;-80
2021/07/28 06:57:35;;;;;;;9.67;8.23;;;20.30;99.90;;;;;;5026137;28;20502;-81
2021/07/28 07:00:01;;;;;;;8.73;7.83;;;20.20;99.90;;;;;;5025830;28;20507;-79
2021/07/28 07:02:28;;;;;;;9.97;8.50;;;20.40;99.90;;;;;;5026937;28;20448;-81
2021/07/28 07:04:54;;;;;;;9.70;8.70;;;20.30;99.90;;;;;;5026613;28;20488;-81
2021/07/28 07:07:22;;;;;;;10.50;9.40;;;20.00;99.90;;;;;;5024280;28;20456;-80
2021/07/28 07:09:49;;;;;;;10.87;9.03;;;20.50;99.90;;;;;;5024263;28;20858;-79
2021/07/28 07:12:16;;;;;;;9.90;7.70;;;20.60;99.90;;;;;;5021457;28;20456;-79
2021/07/28 07:14:43;;;;;;;8.57;6.13;;;20.60;99.90;;;;;;5022003;28;20482;-79
2021/07/28 07:17:09;;;;;;;7.60;6.90;;;20.60;99.90;;;;;;5024308;28;20546;-79
2021/07/28 07:19:36;;;;;;;7.23;6.50;;;20.70;99.90;;;;;;5019968;28;20503;-79
2021/07/28 07:22:03;;;;;;;8.60;7.70;;;20.70;99.90;;;;;;5021002;28;20478;-79
2021/07/28 07:24:30;;;;;;;8.00;7.20;;;20.80;99.90;;;;;;5021741;28;20503;-79
2021/07/28 07:26:57;;;;;;;7.73;7.03;;;20.90;99.90;;;;;;5022116;28;20459;-79
2021/07/28 07:29:24;;;;;;;7.23;6.43;;;20.90;99.90;;;;;;5022638;28;21060;-79
2021/07/28 07:31:50;;;;;;;13.30;7.80;;;20.80;99.90;;;;;;5024836;28;20443;-78
2021/07/28 07:34:17;;;;;;;6.53;5.93;;;20.90;99.90;;;;;;5027367;28;20443;-79
2021/07/28 07:36:44;;;;;;;7.87;7.07;;;21.00;99.90;;;;;;5023306;28;20444;-79
2021/07/28 07:39:10;;;;;;;8.90;7.40;;;21.10;99.90;;;;;;5022553;28;20989;-79
2021/07/28 07:41:38;;;;;;;6.57;6.07;;;21.30;99.90;;;;;;5023657;28;20460;-79
2021/07/28 07:44:05;;;;;;;8.93;7.50;;;21.40;99.90;;;;;;5022979;28;20561;-79
2021/07/28 07:46:32;;;;;;;7.80;7.00;;;21.40;99.90;;;;;;5022789;28;20452;-79
2021/07/28 07:48:59;;;;;;;11.97;7.77;;;21.40;99.90;;;;;;5024535;28;20954;-78
2021/07/28 07:51:28;;;;;;;9.50;6.10;;;21.30;99.90;;;;;;5030942;28;20452;-78
2021/07/28 07:53:54;;;;;;;7.70;6.87;;;21.50;99.90;;;;;;5030567;28;20448;-78
2021/07/28 07:56:23;;;;;;;7.90;6.47;;;21.50;99.90;;;;;;5029062;28;20448;-78
2021/07/28 07:58:51;;;;;;;8.50;7.57;;;21.70;99.90;;;;;;5025068;28;20503;-78
2021/07/28 08:01:18;;;;;;;7.27;6.10;;;21.80;99.90;;;;;;5029926;28;20468;-78
2021/07/28 08:03:47;;;;;;;6.85;6.15;;;22.10;99.90;;;;;;5030963;28;20910;-77
2021/07/28 08:06:13;;;;;;;8.77;6.33;;;21.80;99.90;;;;;;5030345;28;20260;-78
2021/07/28 08:08:40;;;;;;;6.50;5.90;;;21.80;99.90;;;;;;5024963;28;20440;-80
2021/07/28 08:11:08;;;;;;;6.10;5.50;;;21.70;99.90;;;;;;5024697;28;20839;-80
2021/07/28 08:13:35;;;;;;;5.90;5.43;;;21.90;99.90;;;;;;5024197;28;20882;-79
2021/07/28 08:16:09;;;;;;;6.57;5.87;;;22.10;99.90;;;;;;5023939;28;20456;-79
2021/07/28 08:18:35;;;;;;;6.43;5.80;;;21.90;99.90;;;;;;5023502;28;20432;-80
2021/07/28 08:21:04;;;;;;;7.10;6.30;;;21.90;99.90;;;;;;5024691;28;21029;-79
2021/07/28 08:23:31;;;;;;;6.40;5.80;;;22.00;99.90;;;;;;5023094;28;20479;-78
2021/07/28 08:25:57;;;;;;;14.33;6.27;;;22.20;99.90;;;;;;5023915;28;20449;-78
2021/07/28 08:28:26;;;;;;;7.80;7.07;;;22.20;99.90;;;;;;5022994;28;20607;-78
2021/07/28 08:30:55;;;;;;;10.33;6.23;;;22.30;99.90;;;;;;5022155;28;20890;-79
2021/07/28 08:33:23;;;;;;;4.70;4.30;;;22.40;99.90;;;;;;5023020;28;20466;-79
2021/07/28 08:35:50;;;;;;;5.93;5.43;;;22.50;99.90;;;;;;5022050;28;20458;-79
2021/07/28 08:38:20;;;;;;;5.60;5.00;;;22.60;99.90;;;;;;5022110;28;20823;-79
2021/07/28 08:40:50;;;;;;;5.93;5.40;;;22.60;99.90;;;;;;5021496;28;21012;-79
2021/07/28 08:43:19;;;;;;;6.17;5.67;;;22.70;99.90;;;;;;5022324;28;20958;-79
2021/07/28 08:45:47;;;;;;;6.50;5.87;;;22.80;99.90;;;;;;5022051;28;20480;-79
2021/07/28 08:48:16;;;;;;;5.87;5.37;;;23.00;99.90;;;;;;5021649;28;20458;-79
2021/07/28 08:50:45;;;;;;;5.70;5.10;;;22.80;99.90;;;;;;5021741;28;20480;-79
2021/07/28 08:53:11;;;;;;;6.27;5.67;;;22.90;99.90;;;;;;5021253;28;20439;-79
2021/07/28 08:55:39;;;;;;;5.83;5.33;;;22.80;99.90;;;;;;5021863;28;20448;-79
2021/07/28 08:58:07;;;;;;;5.63;5.13;;;22.70;99.90;;;;;;5021775;28;20444;-79
2021/07/28 09:00:41;;;;;;;6.80;6.20;;;22.80;99.90;;;;;;5021983;28;20610;-79
2021/07/28 09:03:08;;;;;;;5.90;5.40;;;22.70;99.90;;;;;;5020378;28;20432;-80
2021/07/28 09:05:39;;;;;;;6.10;5.50;;;22.70;99.90;;;;;;5019801;28;20483;-79
2021/07/28 09:08:07;;;;;;;6.43;5.90;;;22.70;99.90;;;;;;5020474;28;20432;-79
2021/07/28 09:10:37;;;;;;;6.90;6.20;;;22.80;99.90;;;;;;5021613;28;20494;-79
2021/07/28 09:13:04;;;;;;;6.90;6.20;;;23.50;99.90;;;;;;5023504;28;20448;-78
2021/07/28 09:15:38;;;;;;;6.73;6.03;;;22.80;99.90;;;;;;5022420;28;20982;-79
2021/07/28 09:18:27;;;;;;;5.73;5.27;;;22.80;99.90;;;;;;5020750;28;20417;-79
2021/07/28 09:20:53;;;;;;;5.70;5.20;;;23.00;99.90;;;;;;5028377;28;20552;-77
2021/07/28 09:23:21;;;;;;;6.80;5.27;;;22.90;99.90;;;;;;5026769;28;20441;-80
2021/07/28 09:25:53;;;;;;;6.07;5.47;;;22.90;99.90;;;;;;5021834;28;20902;-79
2021/07/28 09:28:21;;;;;;;6.93;5.00;;;22.90;99.90;;;;;;5023345;28;20444;-79
2021/07/28 09:30:48;;;;;;;4.90;4.50;;;22.80;99.90;;;;;;5027709;28;20520;-78
2021/07/28 09:33:15;;;;;;;5.87;5.37;;;23.10;99.90;;;;;;5027816;28;20964;-78
2021/07/28 09:36:14;;;;;;;5.10;4.70;;;23.10;99.90;;;;;;5026344;28;20506;-78
2021/07/28 09:38:49;;;;;;;4.23;3.93;;;23.00;99.90;;;;;;5028611;28;20455;-78
2021/07/28 09:41:21;;;;;;;5.40;4.30;;;23.00;99.90;;;;;;5021766;28;20502;-79
2021/07/28 09:43:50;;;;;;;4.80;3.83;;;23.00;99.90;;;;;;5021843;28;20459;-79
2021/07/28 09:46:22;;;;;;;5.00;4.50;;;22.90;99.90;;;;;;5022567;28;20451;-79
2021/07/28 09:48:49;;;;;;;6.43;4.70;;;23.00;99.90;;;;;;5023416;28;20779;-80
2021/07/28 09:51:23;;;;;;;5.07;4.67;;;23.00;99.90;;;;;;5022657;28;20528;-80
2021/07/28 09:53:54;;;;;;;6.33;5.73;;;22.90;99.90;;;;;;5022900;28;20424;-79
2021/07/28 09:56:38;;;;;;;5.80;5.20;;;22.90;99.90;;;;;;5022824;28;20436;-78
2021/07/28 09:59:05;;;;;;;6.00;5.50;;;23.20;99.90;;;;;;5024397;28;20432;-78
2021/07/28 10:01:34;;;;;;;3.93;3.53;;;23.30;99.90;;;;;;5027637;28;20448;-78
2021/07/28 10:04:01;;;;;;;5.30;4.80;;;23.40;99.90;;;;;;5022530;28;20516;-78
2021/07/28 10:06:33;;;;;;;5.43;4.87;;;23.60;99.90;;;;;;5024022;28;20447;-78
2021/07/28 10:09:02;;;;;;;4.70;4.30;;;23.30;99.90;;;;;;5030929;28;20449;-80
2021/07/28 10:11:29;;;;;;;5.37;4.80;;;23.80;99.90;;;;;;5024056;28;20452;-79
2021/07/28 10:13:56;;;;;;;4.47;4.07;;;23.80;99.90;;;;;;5023083;28;20451;-77
2021/07/28 10:16:24;;;;;;;5.00;4.60;;;23.70;99.90;;;;;;5024493;28;20452;-78
2021/07/28 10:18:51;;;;;;;4.40;3.97;;;23.70;99.90;;;;;;5025239;28;20448;-79
2021/07/28 10:21:18;;;;;;;5.00;4.37;;;23.60;99.90;;;;;;5022933;28;20472;-80
2021/07/28 10:23:48;;;;;;;5.33;4.83;;;23.50;99.90;;;;;;5022571;28;20455;-80
2021/07/28 10:26:19;;;;;;;5.40;4.73;;;23.40;99.90;;;;;;5023101;28;20492;-78
2021/07/28 10:28:48;;;;;;;6.90;6.30;;;23.40;99.90;;;;;;5023335;28;20451;-80
2021/07/28 10:31:16;;;;;;;9.80;8.20;;;23.40;99.90;;;;;;5023069;28;21041;-79
2021/07/28 10:33:51;;;;;;;7.23;6.53;;;23.50;99.90;;;;;;5024314;28;20522;-79
2021/07/28 10:36:18;;;;;;;5.13;4.27;;;23.60;99.90;;;;;;5027064;28;20459;-78
2021/07/28 10:38:52;;;;;;;5.90;5.30;;;23.60;99.90;;;;;;5025648;28;20448;-80
2021/07/28 10:41:50;;;;;;;5.47;4.97;;;23.60;99.90;;;;;;5023374;28;20475;-80
2021/07/28 10:44:19;;;;;;;5.13;4.73;;;23.70;99.90;;;;;;5018834;28;20484;-79
2021/07/28 10:47:12;;;;;;;4.93;4.43;;;23.60;99.90;;;;;;5024061;28;20451;-80
2021/07/28 10:49:49;;;;;;;5.90;5.00;;;23.50;99.90;;;;;;5022305;28;20837;-80
2021/07/28 10:52:35;;;;;;;4.60;4.03;;;23.50;99.90;;;;;;5020936;28;20448;-79
2021/07/28 10:55:19;;;;;;;5.77;5.20;;;23.60;99.90;;;;;;5023655;28;20473;-79
2021/07/28 10:58:22;;;;;;;8.00;7.23;;;23.80;99.90;;;;;;5022747;28;20875;-79
2021/07/28 11:00:58;;;;;;;9.60;7.50;;;23.80;99.90;;;;;;5020446;28;21042;-78
2021/07/28 11:03:35;;;;;;;5.47;4.97;;;24.00;99.90;;;;;;5021556;28;20495;-79
2021/07/28 11:06:23;;;;;;;6.00;4.90;;;24.20;99.90;;;;;;5021235;28;20525;-79
2021/07/28 11:08:51;;;;;;;4.40;4.07;;;24.40;99.90;;;;;;5022392;28;20890;-80
2021/07/28 11:11:35;;;;;;;6.77;5.97;;;24.40;99.90;;;;;;5022124;28;20475;-80
2021/07/28 11:14:03;;;;;;;5.83;4.80;;;24.50;99.90;;;;;;5021108;28;20439;-79
2021/07/28 11:16:31;;;;;;;5.60;4.37;;;24.20;99.90;;;;;;5020965;28;20440;-77
2021/07/28 11:18:58;;;;;;;5.17;4.73;;;24.30;99.90;;;;;;5020540;28;20571;-79
2021/07/28 11:21:29;;;;;;;5.10;4.60;;;24.10;99.90;;;;;;5023142;28;20533;-79
2021/07/28 11:24:00;;;;;;;4.60;4.20;;;24.10;99.90;;;;;;5028579;28;20429;-79
2021/07/28 11:26:29;;;;;;;4.63;4.23;;;24.40;99.90;;;;;;5028130;28;20456;-78
2021/07/28 11:28:57;;;;;;;3.40;3.10;;;24.40;99.90;;;;;;5032180;28;20444;-78
2021/07/28 11:31:26;;;;;;;3.40;3.13;;;24.50;99.90;;;;;;5027002;28;20464;-79
2021/07/28 11:34:17;;;;;;;4.43;4.03;;;24.20;99.90;;;;;;5026903;28;20443;-79
2021/07/28 11:36:47;;;;;;;3.93;3.50;;;24.60;99.90;;;;;;5022123;28;20463;-79
2021/07/28 11:39:17;;;;;;;4.30;3.20;;;24.50;99.90;;;;;;5022941;28;20452;-79
2021/07/28 11:41:45;;;;;;;5.90;4.00;;;24.80;99.90;;;;;;5058514;22;20494;-76
2021/07/28 11:44:12;;;;;;;4.27;3.90;;;24.70;99.90;;;;;;5036673;28;20466;-76
2021/07/28 11:46:39;;;;;;;3.70;3.30;;;24.70;99.90;;;;;;5036570;28;20479;-77
2021/07/28 11:49:09;;;;;;;5.57;4.67;;;24.60;99.90;;;;;;5036360;28;20454;-77
2021/07/28 11:51:37;;;;;;;6.47;3.27;;;24.60;99.90;;;;;;5036819;28;20843;-77
2021/07/28 11:54:09;;;;;;;3.90;3.23;;;24.70;99.90;;;;;;5036677;28;20489;-76
2021/07/28 11:56:36;;;;;;;4.20;3.90;;;24.70;99.90;;;;;;5036373;28;20475;-76
2021/07/28 11:59:03;;;;;;;4.40;4.00;;;24.60;99.90;;;;;;5036673;28;20497;-77
2021/07/28 12:01:32;;;;;;;3.63;3.33;;;24.50;99.90;;;;;;5037233;28;21036;-79
2021/07/28 12:04:03;;;;;;;5.37;4.53;;;24.50;99.90;;;;;;5036463;28;20448;-76
2021/07/28 12:06:34;;;;;;;4.20;3.90;;;24.50;99.90;;;;;;5036380;28;20520;-76
2021/07/28 12:09:09;;;;;;;5.17;4.33;;;24.50;99.90;;;;;;5035953;28;20481;-77
2021/07/28 12:11:50;;;;;;;5.03;4.17;;;24.50;99.90;;;;;;5036315;28;20473;-76
2021/07/28 12:14:27;;;;;;;4.93;3.50;;;24.40;99.90;;;;;;5036247;28;20482;-76
2021/07/28 12:16:55;;;;;;;4.27;3.87;;;24.50;99.90;;;;;;5036901;28;20493;-76
2021/07/28 12:19:26;;;;;;;5.53;3.63;;;25.00;99.90;;;;;;5036111;28;20451;-76
2021/07/28 12:22:05;;;;;;;3.60;3.30;;;24.50;99.90;;;;;;5035335;28;20978;-76
2021/07/28 12:24:36;;;;;;;5.63;3.30;;;24.50;99.90;;;;;;5035873;28;20439;-76
2021/07/28 12:27:46;;;;;;;3.03;2.83;;;24.40;99.90;;;;;;5036609;28;20435;-76
2021/07/28 12:30:20;;;;;;;5.10;3.87;;;24.40;99.90;;;;;;5035597;28;20463;-76
2021/07/28 12:32:48;;;;;;;4.40;4.10;;;24.40;99.90;;;;;;5035973;28;20847;-76
2021/07/28 12:35:37;;;;;;;7.07;5.32;;;24.30;99.90;;;;;;5036304;28;20809;-76
2021/07/28 12:38:10;;;;;;;3.43;3.10;;;24.40;99.90;;;;;;5037142;28;20197;-76
2021/07/28 12:40:39;;;;;;;4.50;4.10;;;24.40;99.90;;;;;;5036758;28;20478;-76
2021/07/28 12:43:06;;;;;;;4.20;3.80;;;24.60;99.90;;;;;;5038308;28;20451;-76
2021/07/28 12:45:34;;;;;;;3.50;3.20;;;24.50;99.90;;;;;;5035733;28;20529;-76
2021/07/28 12:48:05;;;;;;;3.67;3.37;;;24.50;99.90;;;;;;5036480;28;20450;-76
2021/07/28 12:50:33;;;;;;;3.67;3.37;;;24.50;99.90;;;;;;5037929;28;20462;-76
2021/07/28 12:52:59;;;;;;;6.03;3.37;;;24.40;99.90;;;;;;5036835;28;20457;-76
2021/07/28 12:55:27;;;;;;;3.67;3.37;;;24.40;99.90;;;;;;5035942;28;20451;-76